sensor_id;sensor_type;location;lat;lon;timestamp;pressure;altitude;pressure_sealevel;temperature;humidity
21547;BME280;41275;51.912;4.388;2022-08-18T00:00:36;101358.78;;;25.56;54.18
21547;BME280;41275;51.912;4.388;2022-08-18T00:05:57;101354.50;;;25.64;54.20
21547;BME280;41275;51.912;4.388;2022-08-18T00:11:19;101349.53;;;25.66;54.28
21547;BME280;41275;51.912;4.388;2022-08-18T00:16:40;101340.59;;;25.57;54.50
21547;BME280;41275;51.912;4.388;2022-08-18T00:22:02;101326.69;;;25.41;54.77
21547;BME280;41275;51.912;4.388;2022-08-18T00:27:28;101322.81;;;25.25;55.28
21547;BME280;41275;51.912;4.388;2022-08-18T00:32:55;101338.94;;;25.07;55.56
21547;BME280;41275;51.912;4.388;2022-08-18T00:38:16;101320.13;;;25.02;56.06
21547;BME280;41275;51.912;4.388;2022-08-18T00:43:49;101339.72;;;24.99;56.27
21547;BME280;41275;51.912;4.388;2022-08-18T00:49:11;101361.84;;;24.92;56.73
21547;BME280;41275;51.912;4.388;2022-08-18T00:54:33;101350.50;;;24.90;56.76
21547;BME280;41275;51.912;4.388;2022-08-18T00:59:59;101352.97;;;24.78;56.85
21547;BME280;41275;51.912;4.388;2022-08-18T01:05:35;101361.66;;;24.66;57.06
21547;BME280;41275;51.912;4.388;2022-08-18T01:11:01;101345.56;;;24.61;56.92
21547;BME280;41275;51.912;4.388;2022-08-18T01:16:23;101346.97;;;24.59;57.37
21547;BME280;41275;51.912;4.388;2022-08-18T01:22:11;101349.81;;;24.54;57.64
21547;BME280;41275;51.912;4.388;2022-08-18T01:27:34;101350.41;;;24.51;57.71
21547;BME280;41275;51.912;4.388;2022-08-18T01:32:57;101342.16;;;24.56;57.68
21547;BME280;41275;51.912;4.388;2022-08-18T01:38:20;101343.28;;;24.55;57.63
21547;BME280;41275;51.912;4.388;2022-08-18T01:43:42;101343.41;;;24.49;57.85
21547;BME280;41275;51.912;4.388;2022-08-18T01:49:04;101360.75;;;24.48;57.77
21547;BME280;41275;51.912;4.388;2022-08-18T01:54:26;101360.56;;;24.45;57.81
21547;BME280;41275;51.912;4.388;2022-08-18T01:59:50;101374.69;;;24.42;57.77
21547;BME280;41275;51.912;4.388;2022-08-18T02:05:19;101370.19;;;24.37;57.99
21547;BME280;41275;51.912;4.388;2022-08-18T02:10:43;101364.56;;;24.34;57.95
21547;BME280;41275;51.912;4.388;2022-08-18T02:16:04;101355.75;;;24.28;58.17
21547;BME280;41275;51.912;4.388;2022-08-18T02:21:25;101353.97;;;24.23;58.32
21547;BME280;41275;51.912;4.388;2022-08-18T02:26:47;101362.59;;;24.25;58.55
21547;BME280;41275;51.912;4.388;2022-08-18T02:32:11;101364.50;;;24.25;58.32
21547;BME280;41275;51.912;4.388;2022-08-18T02:37:32;101361.91;;;24.20;58.34
21547;BME280;41275;51.912;4.388;2022-08-18T02:42:54;101363.63;;;24.16;58.43
21547;BME280;41275;51.912;4.388;2022-08-18T02:48:16;101371.44;;;24.17;58.36
21547;BME280;41275;51.912;4.388;2022-08-18T02:53:41;101372.84;;;24.15;58.47
21547;BME280;41275;51.912;4.388;2022-08-18T02:59:06;101382.75;;;24.19;58.36
21547;BME280;41275;51.912;4.388;2022-08-18T03:04:28;101385.84;;;24.27;58.35
21547;BME280;41275;51.912;4.388;2022-08-18T03:09:49;101384.41;;;24.43;58.08
21547;BME280;41275;51.912;4.388;2022-08-18T03:15:11;101386.25;;;24.56;57.75
21547;BME280;41275;51.912;4.388;2022-08-18T03:20:32;101394.94;;;24.67;57.56
21547;BME280;41275;51.912;4.388;2022-08-18T03:25:55;101391.28;;;24.71;57.47
21547;BME280;41275;51.912;4.388;2022-08-18T03:31:18;101388.97;;;24.79;57.62
21547;BME280;41275;51.912;4.388;2022-08-18T03:36:40;101382.44;;;24.80;57.68
21547;BME280;41275;51.912;4.388;2022-08-18T03:42:02;101384.47;;;24.74;58.02
21547;BME280;41275;51.912;4.388;2022-08-18T03:47:23;101393.16;;;24.62;58.27
21547;BME280;41275;51.912;4.388;2022-08-18T03:52:45;101385.38;;;24.47;58.46
21547;BME280;41275;51.912;4.388;2022-08-18T03:58:09;101390.59;;;24.43;58.71
21547;BME280;41275;51.912;4.388;2022-08-18T04:03:34;101398.19;;;24.55;58.06
21547;BME280;41275;51.912;4.388;2022-08-18T04:09:00;101388.66;;;24.58;58.51
21547;BME280;41275;51.912;4.388;2022-08-18T04:14:23;101382.50;;;24.66;58.42
21547;BME280;41275;51.912;4.388;2022-08-18T04:19:45;101374.41;;;24.66;58.19
21547;BME280;41275;51.912;4.388;2022-08-18T04:25:07;101374.16;;;24.54;58.40
21547;BME280;41275;51.912;4.388;2022-08-18T04:30:31;101382.56;;;24.52;58.64
21547;BME280;41275;51.912;4.388;2022-08-18T04:35:53;101372.97;;;24.46;58.77
21547;BME280;41275;51.912;4.388;2022-08-18T04:41:14;101374.09;;;24.31;59.06
21547;BME280;41275;51.912;4.388;2022-08-18T04:46:38;101365.78;;;24.28;59.52
21547;BME280;41275;51.912;4.388;2022-08-18T04:52:00;101364.78;;;24.23;59.78
21547;BME280;41275;51.912;4.388;2022-08-18T04:57:40;101367.09;;;24.30;59.62
21547;BME280;41275;51.912;4.388;2022-08-18T05:03:02;101376.66;;;24.36;59.63
21547;BME280;41275;51.912;4.388;2022-08-18T05:08:24;101381.78;;;24.38;59.36
21547;BME280;41275;51.912;4.388;2022-08-18T05:13:46;101382.09;;;24.36;59.50
21547;BME280;41275;51.912;4.388;2022-08-18T05:19:09;101383.19;;;24.35;59.65
21547;BME280;41275;51.912;4.388;2022-08-18T05:24:32;101389.53;;;24.44;59.62
21547;BME280;41275;51.912;4.388;2022-08-18T05:29:55;101385.16;;;24.57;59.63
21547;BME280;41275;51.912;4.388;2022-08-18T05:35:48;101394.75;;;24.63;59.65
21547;BME280;41275;51.912;4.388;2022-08-18T05:41:27;101392.00;;;24.77;59.46
21547;BME280;41275;51.912;4.388;2022-08-18T05:46:52;101396.09;;;24.97;59.34
21547;BME280;41275;51.912;4.388;2022-08-18T05:52:19;101385.38;;;25.14;59.04
21547;BME280;41275;51.912;4.388;2022-08-18T05:57:55;101386.09;;;25.29;58.68
21547;BME280;41275;51.912;4.388;2022-08-18T06:03:24;101382.19;;;25.43;58.43
21547;BME280;41275;51.912;4.388;2022-08-18T06:09:20;101386.34;;;25.58;57.94
21547;BME280;41275;51.912;4.388;2022-08-18T06:14:39;101386.72;;;25.74;57.75
21547;BME280;41275;51.912;4.388;2022-08-18T06:20:20;101391.91;;;25.93;57.21
21547;BME280;41275;51.912;4.388;2022-08-18T06:31:56;101385.88;;;26.31;55.64
21547;BME280;41275;51.912;4.388;2022-08-18T06:42:50;101384.13;;;26.52;54.96
21547;BME280;41275;51.912;4.388;2022-08-18T06:48:26;101391.31;;;26.65;54.03
21547;BME280;41275;51.912;4.388;2022-08-18T06:54:04;101399.31;;;26.71;54.12
21547;BME280;41275;51.912;4.388;2022-08-18T06:59:32;101405.50;;;26.80;53.65
21547;BME280;41275;51.912;4.388;2022-08-18T07:05:05;101416.81;;;26.99;53.54
21547;BME280;41275;51.912;4.388;2022-08-18T07:10:31;101416.28;;;27.23;52.36
21547;BME280;41275;51.912;4.388;2022-08-18T07:16:03;101418.22;;;27.61;51.94
21547;BME280;41275;51.912;4.388;2022-08-18T07:21:37;101418.66;;;27.80;50.51
21547;BME280;41275;51.912;4.388;2022-08-18T07:27:17;101422.47;;;28.09;49.57
21547;BME280;41275;51.912;4.388;2022-08-18T07:44:20;101432.19;;;28.40;47.83
21547;BME280;41275;51.912;4.388;2022-08-18T07:49:43;101427.53;;;28.94;47.11
21547;BME280;41275;51.912;4.388;2022-08-18T07:55:29;101431.28;;;29.35;46.28
21547;BME280;41275;51.912;4.388;2022-08-18T08:06:42;101438.69;;;29.59;45.25
21547;BME280;41275;51.912;4.388;2022-08-18T08:18:22;101437.69;;;29.64;45.41
21547;BME280;41275;51.912;4.388;2022-08-18T08:34:50;101437.69;;;28.52;46.44
21547;BME280;41275;51.912;4.388;2022-08-18T08:40:43;101426.50;;;28.53;46.87
21547;BME280;41275;51.912;4.388;2022-08-18T08:46:14;101437.19;;;29.25;45.91
21547;BME280;41275;51.912;4.388;2022-08-18T08:51:42;101438.22;;;30.18;44.13
21547;BME280;41275;51.912;4.388;2022-08-18T08:57:05;101437.19;;;30.63;43.04
21547;BME280;41275;51.912;4.388;2022-08-18T09:02:52;101426.16;;;30.60;42.96
21547;BME280;41275;51.912;4.388;2022-08-18T09:20:00;101434.75;;;30.46;42.18
21547;BME280;41275;51.912;4.388;2022-08-18T09:25:49;101434.50;;;30.79;42.18
21547;BME280;41275;51.912;4.388;2022-08-18T09:31:15;101443.59;;;30.83;40.85
21547;BME280;41275;51.912;4.388;2022-08-18T09:42:42;101440.28;;;30.49;41.85
21547;BME280;41275;51.912;4.388;2022-08-18T10:05:27;101429.94;;;32.29;37.92
21547;BME280;41275;51.912;4.388;2022-08-18T10:11:01;101424.41;;;32.45;38.38
21547;BME280;41275;51.912;4.388;2022-08-18T10:17:01;101422.84;;;32.09;39.49
21547;BME280;41275;51.912;4.388;2022-08-18T10:22:42;101427.09;;;31.39;40.21
21547;BME280;41275;51.912;4.388;2022-08-18T10:28:07;101427.25;;;31.15;40.64
21547;BME280;41275;51.912;4.388;2022-08-18T10:34:05;101427.66;;;30.73;40.82
21547;BME280;41275;51.912;4.388;2022-08-18T10:39:43;101417.00;;;30.68;41.45
21547;BME280;41275;51.912;4.388;2022-08-18T10:45:11;101404.31;;;31.19;40.45
21547;BME280;41275;51.912;4.388;2022-08-18T10:50:40;101419.44;;;31.45;39.87
21547;BME280;41275;51.912;4.388;2022-08-18T10:56:23;101421.16;;;31.69;39.13
21547;BME280;41275;51.912;4.388;2022-08-18T11:02:08;101417.78;;;32.11;38.28
21547;BME280;41275;51.912;4.388;2022-08-18T11:07:33;101422.34;;;32.22;37.57
21547;BME280;41275;51.912;4.388;2022-08-18T11:13:09;101408.47;;;32.31;37.90
21547;BME280;41275;51.912;4.388;2022-08-18T11:24:12;101416.59;;;32.86;37.45
21547;BME280;41275;51.912;4.388;2022-08-18T11:29:40;101406.09;;;32.49;36.63
21547;BME280;41275;51.912;4.388;2022-08-18T11:35:06;101414.81;;;32.74;35.94
21547;BME280;41275;51.912;4.388;2022-08-18T11:40:42;101399.53;;;33.19;35.13
21547;BME280;41275;51.912;4.388;2022-08-18T11:51:54;101379.72;;;34.09;33.06
21547;BME280;41275;51.912;4.388;2022-08-18T11:57:39;101370.81;;;34.53;33.39
21547;BME280;41275;51.912;4.388;2022-08-18T12:03:08;101371.47;;;33.52;34.77
21547;BME280;41275;51.912;4.388;2022-08-18T12:08:33;101368.84;;;33.36;35.21
21547;BME280;41275;51.912;4.388;2022-08-18T12:14:01;101353.66;;;32.93;34.90
21547;BME280;41275;51.912;4.388;2022-08-18T12:19:24;101346.34;;;33.01;35.01
21547;BME280;41275;51.912;4.388;2022-08-18T12:24:48;101343.91;;;33.71;34.31
21547;BME280;41275;51.912;4.388;2022-08-18T12:30:11;101339.47;;;35.05;31.93
21547;BME280;41275;51.912;4.388;2022-08-18T12:35:32;101353.72;;;34.74;31.54
21547;BME280;41275;51.912;4.388;2022-08-18T12:40:54;101343.22;;;34.45;32.05
21547;BME280;41275;51.912;4.388;2022-08-18T12:46:15;101335.53;;;33.61;32.14
21547;BME280;41275;51.912;4.388;2022-08-18T12:51:36;101352.91;;;33.99;32.88
21547;BME280;41275;51.912;4.388;2022-08-18T12:57:01;101363.84;;;36.56;28.80
21547;BME280;41275;51.912;4.388;2022-08-18T13:02:22;101364.44;;;38.11;26.50
21547;BME280;41275;51.912;4.388;2022-08-18T13:07:46;101351.66;;;36.61;27.37
21547;BME280;41275;51.912;4.388;2022-08-18T13:13:08;101350.94;;;35.70;28.84
21547;BME280;41275;51.912;4.388;2022-08-18T13:18:29;101365.50;;;34.37;30.43
21547;BME280;41275;51.912;4.388;2022-08-18T13:23:51;101367.47;;;34.03;30.81
21547;BME280;41275;51.912;4.388;2022-08-18T13:29:14;101376.03;;;33.71;31.18
21547;BME280;41275;51.912;4.388;2022-08-18T13:34:37;101382.09;;;35.95;28.88
21547;BME280;41275;51.912;4.388;2022-08-18T13:39:59;101386.13;;;36.01;28.79
21547;BME280;41275;51.912;4.388;2022-08-18T13:45:21;101388.22;;;37.90;26.50
21547;BME280;41275;51.912;4.388;2022-08-18T13:50:43;101389.66;;;39.72;23.79
21547;BME280;41275;51.912;4.388;2022-08-18T13:56:05;101382.91;;;41.12;22.47
21547;BME280;41275;51.912;4.388;2022-08-18T14:01:26;101383.19;;;40.94;22.35
21547;BME280;41275;51.912;4.388;2022-08-18T14:06:49;101388.66;;;36.53;27.68
21547;BME280;41275;51.912;4.388;2022-08-18T14:12:31;101385.38;;;34.57;30.55
21547;BME280;41275;51.912;4.388;2022-08-18T14:17:54;101379.75;;;33.56;31.51
21547;BME280;41275;51.912;4.388;2022-08-18T14:23:18;101395.75;;;32.62;33.36
21547;BME280;41275;51.912;4.388;2022-08-18T14:28:58;101389.38;;;32.35;34.02
21547;BME280;41275;51.912;4.388;2022-08-18T14:34:19;101382.41;;;32.02;35.18
21547;BME280;41275;51.912;4.388;2022-08-18T14:39:41;101386.00;;;31.87;35.41
21547;BME280;41275;51.912;4.388;2022-08-18T14:45:05;101389.47;;;34.06;32.74
21547;BME280;41275;51.912;4.388;2022-08-18T14:50:27;101394.28;;;34.84;31.22
21547;BME280;41275;51.912;4.388;2022-08-18T14:55:50;101391.16;;;33.35;33.44
21547;BME280;41275;51.912;4.388;2022-08-18T15:01:12;101396.41;;;33.20;33.83
21547;BME280;41275;51.912;4.388;2022-08-18T15:06:34;101377.63;;;33.99;33.06
21547;BME280;41275;51.912;4.388;2022-08-18T15:11:57;101374.63;;;35.88;30.94
21547;BME280;41275;51.912;4.388;2022-08-18T15:17:18;101372.53;;;36.76;29.04
21547;BME280;41275;51.912;4.388;2022-08-18T15:22:41;101378.84;;;36.91;28.76
21547;BME280;41275;51.912;4.388;2022-08-18T15:28:23;101373.97;;;37.99;27.29
21547;BME280;41275;51.912;4.388;2022-08-18T15:33:45;101377.47;;;38.06;27.01
21547;BME280;41275;51.912;4.388;2022-08-18T15:39:07;101362.94;;;38.62;25.79
21547;BME280;41275;51.912;4.388;2022-08-18T15:44:28;101358.03;;;39.32;24.98
21547;BME280;41275;51.912;4.388;2022-08-18T15:49:50;101371.28;;;38.58;24.69
21547;BME280;41275;51.912;4.388;2022-08-18T15:55:11;101368.09;;;37.90;25.42
21547;BME280;41275;51.912;4.388;2022-08-18T16:00:33;101376.50;;;35.70;28.08
21547;BME280;41275;51.912;4.388;2022-08-18T16:05:54;101373.94;;;34.51;29.90
21547;BME280;41275;51.912;4.388;2022-08-18T16:11:16;101357.78;;;33.29;31.93
21547;BME280;41275;51.912;4.388;2022-08-18T16:16:39;101353.69;;;32.73;33.01
21547;BME280;41275;51.912;4.388;2022-08-18T16:22:00;101357.63;;;32.53;33.77
21547;BME280;41275;51.912;4.388;2022-08-18T16:27:26;101351.75;;;32.51;34.17
21547;BME280;41275;51.912;4.388;2022-08-18T16:32:49;101351.44;;;32.17;34.84
21547;BME280;41275;51.912;4.388;2022-08-18T16:38:11;101343.94;;;31.95;35.07
21547;BME280;41275;51.912;4.388;2022-08-18T16:43:33;101347.22;;;31.65;35.66
21547;BME280;41275;51.912;4.388;2022-08-18T16:48:56;101349.66;;;31.70;35.25
21547;BME280;41275;51.912;4.388;2022-08-18T16:54:17;101346.03;;;31.31;35.98
21547;BME280;41275;51.912;4.388;2022-08-18T16:59:41;101341.72;;;32.00;35.01
21547;BME280;41275;51.912;4.388;2022-08-18T17:05:21;101339.41;;;34.54;31.18
21547;BME280;41275;51.912;4.388;2022-08-18T17:10:42;101333.88;;;36.37;28.56
21547;BME280;41275;51.912;4.388;2022-08-18T17:16:04;101338.06;;;37.95;26.79
21547;BME280;41275;51.912;4.388;2022-08-18T17:21:30;101331.84;;;38.99;24.68
21547;BME280;41275;51.912;4.388;2022-08-18T17:26:58;101332.34;;;39.96;23.67
21547;BME280;41275;51.912;4.388;2022-08-18T17:32:25;101334.28;;;40.30;23.02
21547;BME280;41275;51.912;4.388;2022-08-18T17:37:54;101340.44;;;40.41;22.94
21547;BME280;41275;51.912;4.388;2022-08-18T17:43:21;101332.81;;;40.22;22.81
21547;BME280;41275;51.912;4.388;2022-08-18T17:48:47;101338.09;;;40.13;22.87
21547;BME280;41275;51.912;4.388;2022-08-18T17:54:30;101344.47;;;39.79;23.44
21547;BME280;41275;51.912;4.388;2022-08-18T18:00:06;101336.28;;;39.68;23.64
21547;BME280;41275;51.912;4.388;2022-08-18T18:05:42;101331.63;;;39.24;24.10
21547;BME280;41275;51.912;4.388;2022-08-18T18:11:10;101342.00;;;38.64;24.37
21547;BME280;41275;51.912;4.388;2022-08-18T18:16:32;101324.00;;;37.54;25.62
21547;BME280;41275;51.912;4.388;2022-08-18T18:22:20;101323.78;;;35.06;29.05
21547;BME280;41275;51.912;4.388;2022-08-18T18:27:43;101321.22;;;33.48;32.03
21547;BME280;41275;51.912;4.388;2022-08-18T18:33:14;101325.38;;;32.43;33.78
21547;BME280;41275;51.912;4.388;2022-08-18T18:38:38;101333.06;;;31.63;35.66
21547;BME280;41275;51.912;4.388;2022-08-18T18:44:08;101334.56;;;31.10;36.62
21547;BME280;41275;51.912;4.388;2022-08-18T18:49:52;101333.31;;;30.75;37.19
21547;BME280;41275;51.912;4.388;2022-08-18T18:55:22;101335.19;;;30.43;37.78
21547;BME280;41275;51.912;4.388;2022-08-18T19:00:49;101338.81;;;30.19;38.42
21547;BME280;41275;51.912;4.388;2022-08-18T19:06:26;101343.31;;;29.99;38.79
21547;BME280;41275;51.912;4.388;2022-08-18T19:17:38;101348.13;;;29.66;39.57
21547;BME280;41275;51.912;4.388;2022-08-18T19:28:50;101330.19;;;29.40;40.33
21547;BME280;41275;51.912;4.388;2022-08-18T19:34:22;101321.56;;;29.26;40.70
21547;BME280;41275;51.912;4.388;2022-08-18T19:39:49;101333.50;;;29.21;41.03
21547;BME280;41275;51.912;4.388;2022-08-18T19:51:37;101332.78;;;29.00;41.30
21547;BME280;41275;51.912;4.388;2022-08-18T20:08:50;101333.25;;;28.69;42.14
21547;BME280;41275;51.912;4.388;2022-08-18T20:14:19;101334.50;;;28.59;42.46
21547;BME280;41275;51.912;4.388;2022-08-18T20:20:08;101337.41;;;28.42;43.03
21547;BME280;41275;51.912;4.388;2022-08-18T20:25:38;101329.75;;;28.35;43.45
21547;BME280;41275;51.912;4.388;2022-08-18T20:31:07;101342.50;;;28.22;43.97
21547;BME280;41275;51.912;4.388;2022-08-18T20:36:36;101349.53;;;28.23;44.09
21547;BME280;41275;51.912;4.388;2022-08-18T20:42:05;101348.81;;;28.14;44.14
21547;BME280;41275;51.912;4.388;2022-08-18T20:47:38;101348.72;;;28.02;44.40
21547;BME280;41275;51.912;4.388;2022-08-18T20:53:20;101346.16;;;27.84;44.48
21547;BME280;41275;51.912;4.388;2022-08-18T20:58:55;101347.19;;;27.71;44.62
21547;BME280;41275;51.912;4.388;2022-08-18T21:04:44;101338.78;;;27.55;44.51
21547;BME280;41275;51.912;4.388;2022-08-18T21:10:19;101330.66;;;27.55;44.03
21547;BME280;41275;51.912;4.388;2022-08-18T21:15:41;101335.44;;;27.50;43.78
21547;BME280;41275;51.912;4.388;2022-08-18T21:21:16;101323.56;;;27.33;44.30
21547;BME280;41275;51.912;4.388;2022-08-18T21:26:38;101337.88;;;27.42;44.33
21547;BME280;41275;51.912;4.388;2022-08-18T21:32:09;101330.28;;;27.36;44.53
21547;BME280;41275;51.912;4.388;2022-08-18T21:37:32;101339.56;;;27.26;44.95
21547;BME280;41275;51.912;4.388;2022-08-18T21:42:53;101342.19;;;27.14;45.62
21547;BME280;41275;51.912;4.388;2022-08-18T21:48:15;101333.88;;;27.02;45.95
21547;BME280;41275;51.912;4.388;2022-08-18T21:53:37;101338.22;;;26.94;46.22
21547;BME280;41275;51.912;4.388;2022-08-18T21:59:13;101344.94;;;26.88;46.27
21547;BME280;41275;51.912;4.388;2022-08-18T22:04:36;101347.22;;;26.77;46.50
21547;BME280;41275;51.912;4.388;2022-08-18T22:10:23;101353.31;;;26.65;46.81
21547;BME280;41275;51.912;4.388;2022-08-18T22:16:28;101344.38;;;26.56;47.06
21547;BME280;41275;51.912;4.388;2022-08-18T22:22:03;101353.34;;;26.57;46.77
21547;BME280;41275;51.912;4.388;2022-08-18T22:27:48;101344.38;;;26.56;47.20
21547;BME280;41275;51.912;4.388;2022-08-18T22:33:09;101345.50;;;26.55;47.42
21547;BME280;41275;51.912;4.388;2022-08-18T22:38:30;101353.34;;;26.57;47.52
21547;BME280;41275;51.912;4.388;2022-08-18T22:43:52;101356.84;;;26.49;47.76
21547;BME280;41275;51.912;4.388;2022-08-18T22:49:13;101362.75;;;26.42;47.80
21547;BME280;41275;51.912;4.388;2022-08-18T22:54:34;101369.75;;;26.34;47.47
21547;BME280;41275;51.912;4.388;2022-08-18T22:59:55;101368.50;;;26.23;47.80
21547;BME280;41275;51.912;4.388;2022-08-18T23:05:16;101355.88;;;26.10;48.18
21547;BME280;41275;51.912;4.388;2022-08-18T23:10:38;101373.13;;;26.14;48.26
21547;BME280;41275;51.912;4.388;2022-08-18T23:15:59;101373.09;;;26.05;47.94
21547;BME280;41275;51.912;4.388;2022-08-18T23:21:20;101375.34;;;26.03;48.37
21547;BME280;41275;51.912;4.388;2022-08-18T23:26:41;101365.28;;;26.04;48.68
21547;BME280;41275;51.912;4.388;2022-08-18T23:32:03;101364.94;;;26.05;48.41
21547;BME280;41275;51.912;4.388;2022-08-18T23:37:26;101369.91;;;26.03;48.67
21547;BME280;41275;51.912;4.388;2022-08-18T23:42:47;101360.81;;;25.99;48.88
21547;BME280;41275;51.912;4.388;2022-08-18T23:48:11;101360.31;;;25.97;48.70
21547;BME280;41275;51.912;4.388;2022-08-18T23:53:32;101348.50;;;25.93;49.12
21547;BME280;41275;51.912;4.388;2022-08-18T23:58:54;101349.97;;;25.90;48.98
